createdAt,value
2017-08-30T01:57:09.875Z,98.34
2017-08-30T01:57:10.445Z,98.34
2017-08-30T01:57:11.038Z,98.24
2017-08-30T01:57:11.642Z,98.34
2017-08-30T01:57:12.243Z,98.24
2017-08-30T01:57:12.840Z,98.24
2017-08-30T01:57:13.442Z,98.24
2017-08-30T01:57:14.043Z,98.34
2017-08-30T01:57:14.639Z,98.34
2017-08-30T01:57:15.239Z,98.34
2017-08-30T01:57:15.837Z,98.24
2017-08-30T01:57:16.440Z,98.24
2017-08-30T02:15:49.562Z,97.24
2017-08-30T02:15:50.073Z,96.94
2017-08-30T02:15:50.668Z,97.62
2017-08-30T02:25:46.396Z,96.66
2017-08-30T02:25:46.908Z,96.85
2017-08-30T02:25:47.504Z,97.04
2017-08-30T02:25:48.106Z,96.85
2017-08-30T02:25:48.709Z,96.94
2017-08-30T02:25:49.313Z,96.94
2017-08-30T02:25:49.907Z,97.04
2017-08-30T02:28:40.027Z,95.94
2017-08-30T02:28:40.523Z,96.37
2017-08-30T02:31:02.878Z,96.22
2017-08-30T02:31:03.440Z,96.22
2017-08-30T02:31:04.041Z,96.22
2017-08-30T02:31:04.644Z,96.32
2017-08-30T02:31:05.240Z,96.22
2017-08-30T02:31:05.843Z,96.22
2017-08-30T02:31:06.434Z,96.22
2017-08-30T02:31:07.041Z,96.32
2017-08-30T02:31:07.638Z,96.32
2017-08-30T02:31:08.234Z,96.32
2017-08-30T02:31:08.834Z,96.22
2017-08-30T02:31:09.434Z,96.22
2017-08-30T02:56:46.534Z,97.04
2017-08-30T02:56:47.037Z,97.42
2017-08-30T02:56:47.648Z,97.24
2017-08-30T02:56:48.238Z,97.42
2017-08-30T02:56:48.838Z,97.24
2017-08-30T02:56:49.439Z,97.14
2017-08-30T04:13:42.323Z,95.70
2017-08-30T04:13:42.825Z,95.89
2017-08-30T04:13:43.429Z,96.37
2017-08-30T04:13:44.029Z,95.89
2017-08-30T04:13:44.628Z,96.17
2017-08-30T04:13:45.253Z,96.37
2017-08-30T04:13:45.825Z,96.27
2017-08-30T04:13:46.431Z,96.37
2017-08-30T04:13:47.028Z,96.08
2017-08-30T04:13:47.627Z,95.89
2017-08-30T04:13:48.227Z,96.08
2017-08-30T04:26:18.622Z,95.03
2017-08-30T04:26:19.120Z,94.93
2017-08-30T04:26:19.723Z,95.12
2017-08-30T04:26:20.322Z,95.03
2017-08-30T04:26:20.923Z,94.93
2017-08-30T04:26:21.526Z,94.93
2017-08-30T04:26:22.126Z,95.12
2017-08-30T04:26:22.725Z,95.03
2017-08-30T04:26:23.318Z,94.93
2017-08-30T04:26:23.922Z,94.83
2017-08-30T04:26:24.526Z,94.93
2017-08-30T04:26:25.126Z,95.03
2017-08-30T05:07:58.260Z,92.57
2017-08-30T05:07:58.765Z,92.38
2017-08-30T05:07:59.366Z,92.47
2017-08-30T05:07:59.965Z,92.57
2017-08-30T05:08:00.562Z,92.47
2017-08-30T05:08:01.168Z,92.38
2017-08-30T05:08:01.768Z,92.38
2017-08-30T05:08:02.367Z,92.38
2017-08-30T05:08:02.964Z,92.38
2017-08-30T05:08:03.561Z,92.57
2017-08-30T05:08:04.166Z,92.38
2017-08-30T05:08:04.780Z,92.38
2017-08-30T05:08:05.367Z,92.57
2017-08-30T05:08:05.967Z,92.38
2017-08-30T05:08:06.566Z,92.61
2017-08-30T05:08:07.158Z,92.52
2017-08-30T05:10:09.962Z,91.75
2017-08-30T05:10:10.558Z,91.66
2017-08-30T05:10:11.158Z,91.36
2017-08-30T05:10:11.755Z,91.94
2017-08-30T05:10:12.352Z,91.66
2017-08-30T05:10:12.959Z,92.04
2017-08-30T05:10:13.555Z,91.75
2017-08-30T05:10:14.159Z,91.75
2017-08-30T05:10:14.756Z,91.75
2017-08-30T05:10:15.369Z,91.75
2017-08-30T05:10:15.956Z,91.75
2017-08-30T05:10:16.562Z,91.85
2017-08-30T05:11:11.641Z,91.66
2017-08-30T05:11:12.236Z,92.13
2017-08-30T05:11:12.833Z,91.66
2017-08-30T05:11:13.440Z,92.13
2017-08-30T05:11:14.043Z,91.66
2017-08-30T05:11:14.639Z,91.66
2017-08-30T05:11:15.240Z,91.66
2017-08-30T05:11:15.840Z,91.46
2017-08-30T05:12:09.291Z,91.46
2017-08-30T05:12:09.885Z,91.75
2017-08-30T05:12:10.492Z,91.75
2017-08-30T05:12:11.087Z,91.56
2017-08-30T05:12:11.688Z,91.75
2017-08-30T05:12:12.287Z,91.75
2017-08-30T05:12:12.885Z,91.56
2017-08-30T05:12:13.487Z,91.56
2017-08-30T05:13:06.975Z,91.56
2017-08-30T05:13:07.546Z,91.46
2017-08-30T05:13:08.138Z,91.56
2017-08-30T05:13:08.740Z,91.94
2017-08-30T05:13:09.341Z,91.75
2017-08-30T05:13:09.945Z,91.36
2017-08-30T05:13:10.540Z,91.46
2017-08-30T05:13:11.141Z,91.36
2017-08-30T05:14:05.619Z,90.98
2017-08-30T05:14:06.217Z,91.17
2017-08-30T05:14:06.815Z,91.17
2017-08-30T05:14:07.416Z,91.85
2017-08-30T05:14:08.015Z,91.17
2017-08-30T05:14:08.614Z,91.17
2017-08-30T05:14:09.216Z,91.17
2017-08-30T05:14:09.817Z,91.17
2017-08-30T05:15:03.273Z,91.85
2017-08-30T05:15:03.865Z,91.85
2017-08-30T05:15:04.471Z,91.66
2017-08-30T05:15:05.070Z,91.75
2017-08-30T05:15:05.665Z,91.66
2017-08-30T05:15:06.270Z,91.85
2017-08-30T05:15:06.869Z,91.85
2017-08-30T05:15:07.473Z,91.85
2017-08-30T05:16:01.953Z,91.66
2017-08-30T05:16:02.546Z,91.66
2017-08-30T05:16:03.142Z,91.94
2017-08-30T05:16:03.741Z,91.85
2017-08-30T05:16:04.339Z,91.94
2017-08-30T05:16:04.946Z,91.66
2017-08-30T05:16:05.540Z,91.85
2017-08-30T05:16:06.140Z,91.75
2017-08-30T05:17:00.625Z,91.17
2017-08-30T05:17:01.221Z,91.17
2017-08-30T05:17:01.822Z,91.08
2017-08-30T05:17:02.423Z,91.08
2017-08-30T05:17:03.016Z,91.17
2017-08-30T05:17:03.620Z,90.98
2017-08-30T05:17:04.216Z,91.17
2017-08-30T05:17:04.821Z,91.17
2017-08-30T05:18:30.458Z,91.08
2017-08-30T05:18:31.024Z,90.98
2017-08-30T05:18:31.624Z,90.98
2017-08-30T05:18:32.221Z,90.98
2017-08-30T05:18:32.826Z,90.98
2017-08-30T05:19:27.770Z,90.89
2017-08-30T05:19:28.373Z,91.08
2017-08-30T05:19:28.966Z,90.98
2017-08-30T05:19:29.567Z,91.08
2017-08-30T05:19:30.173Z,90.79
2017-08-30T05:19:30.769Z,91.17
2017-08-30T05:19:31.365Z,90.79
2017-08-30T05:19:31.973Z,91.17
2017-08-30T05:20:26.446Z,91.27
2017-08-30T05:20:27.050Z,91.08
2017-08-30T05:20:27.647Z,91.17
2017-08-30T05:20:28.243Z,91.13
2017-08-30T05:20:28.850Z,91.08
2017-08-30T05:20:29.445Z,91.17
2017-08-30T05:20:30.045Z,91.13
2017-08-30T05:20:30.645Z,90.98
2017-08-30T05:21:25.130Z,91.36
2017-08-30T05:21:25.721Z,91.46
2017-08-30T05:21:26.317Z,91.51
2017-08-30T05:21:26.922Z,91.31
2017-08-30T05:21:27.524Z,91.36
2017-08-30T05:21:28.117Z,91.36
2017-08-30T05:21:28.722Z,91.31
2017-08-30T05:21:29.325Z,91.46
2017-08-30T05:22:23.797Z,90.79
2017-08-30T05:22:24.395Z,90.89
2017-08-30T05:22:24.998Z,90.79
2017-08-30T05:22:25.599Z,90.89
2017-08-30T05:22:26.194Z,90.69
2017-08-30T05:22:26.798Z,90.89
2017-08-30T05:22:27.400Z,90.79
2017-08-30T05:22:27.996Z,90.69
2017-08-30T05:23:22.472Z,90.79
2017-08-30T05:23:23.076Z,90.64
2017-08-30T05:23:23.668Z,90.93
2017-08-30T05:23:24.274Z,90.83
2017-08-30T05:23:24.872Z,90.83
2017-08-30T05:23:25.478Z,90.41
2017-08-30T05:23:26.069Z,90.64
2017-08-30T05:23:26.673Z,90.45
2017-08-30T05:24:21.184Z,90.55
2017-08-30T05:24:21.750Z,90.55
2017-08-30T05:24:22.348Z,90.45
2017-08-30T05:24:22.951Z,90.55
2017-08-30T05:24:23.552Z,90.64
2017-08-30T05:24:24.150Z,90.55
2017-08-30T05:24:24.753Z,90.55
2017-08-30T05:24:25.354Z,90.55
2017-08-30T05:25:18.804Z,90.55
2017-08-30T05:25:19.406Z,90.35
2017-08-30T05:25:20.000Z,90.55
2017-08-30T05:25:20.600Z,90.45
2017-08-30T05:25:21.201Z,90.55
2017-08-30T05:25:21.802Z,90.55
2017-08-30T05:25:22.401Z,90.55
2017-08-30T05:25:23.002Z,90.35
2017-08-30T05:26:17.479Z,90.55
2017-08-30T05:26:18.077Z,90.45
2017-08-30T05:26:18.677Z,90.55
2017-08-30T05:26:19.274Z,90.45
2017-08-30T05:26:19.872Z,90.45
2017-08-30T05:26:20.472Z,90.55
2017-08-30T05:26:21.074Z,90.35
2017-08-30T05:26:21.676Z,90.55
2017-08-30T05:27:16.157Z,90.35
2017-08-30T05:27:16.752Z,89.87
2017-08-30T05:27:17.349Z,90.06
2017-08-30T05:27:17.955Z,90.06
2017-08-30T05:27:18.549Z,89.97
2017-08-30T05:27:19.151Z,90.35
2017-08-30T05:27:19.755Z,89.97
2017-08-30T05:27:20.347Z,89.87
2017-08-30T05:28:14.838Z,90.26
2017-08-30T05:28:15.433Z,90.26
2017-08-30T05:28:16.029Z,90.26
2017-08-30T05:28:16.630Z,90.26
2017-08-30T05:28:17.224Z,90.45
2017-08-30T05:28:17.829Z,90.26
2017-08-30T05:28:18.425Z,90.26
2017-08-30T05:28:19.030Z,89.97
2017-08-30T05:29:13.534Z,89.87
2017-08-30T05:29:14.107Z,89.87
2017-08-30T05:29:14.700Z,90.06
2017-08-30T05:29:15.307Z,89.78
2017-08-30T05:29:15.900Z,89.87
2017-08-30T05:29:16.502Z,89.87
2017-08-30T05:29:17.105Z,89.87
2017-08-30T05:29:17.702Z,89.78
2017-08-30T05:30:12.182Z,89.97
2017-08-30T05:30:12.779Z,89.68
2017-08-30T05:30:13.379Z,89.87
2017-08-30T05:30:13.984Z,90.06
2017-08-30T05:30:14.579Z,89.78
2017-08-30T05:30:15.180Z,89.78
2017-08-30T05:30:15.786Z,89.97
2017-08-30T05:30:16.383Z,89.78
2017-08-30T05:31:10.856Z,90.16
2017-08-30T05:31:11.452Z,90.26
2017-08-30T05:31:12.053Z,89.97
2017-08-30T05:31:12.659Z,89.97
2017-08-30T05:31:13.252Z,89.97
2017-08-30T05:31:13.854Z,90.45
2017-08-30T05:31:14.454Z,90.26
2017-08-30T05:31:15.051Z,90.45
2017-08-30T05:32:09.537Z,90.16
2017-08-30T05:32:10.131Z,89.97
2017-08-30T05:32:10.733Z,89.87
2017-08-30T05:32:11.334Z,89.78
2017-08-30T05:32:11.926Z,89.78
2017-08-30T05:32:12.530Z,90.35
2017-08-30T05:32:13.128Z,90.35
2017-08-30T05:32:13.733Z,89.87
2017-08-30T05:33:08.211Z,89.87
2017-08-30T05:33:08.803Z,89.97
2017-08-30T05:33:09.405Z,89.87
2017-08-30T05:33:10.011Z,90.26
2017-08-30T05:33:10.606Z,90.26
2017-08-30T05:33:11.209Z,89.97
2017-08-30T05:33:11.808Z,89.87
2017-08-30T05:33:12.404Z,90.16
2017-08-30T05:34:06.885Z,90.06
2017-08-30T05:34:07.483Z,89.87
2017-08-30T05:34:08.088Z,89.97
2017-08-30T05:34:08.702Z,89.68
2017-08-30T05:34:09.282Z,89.97
2017-08-30T05:34:09.885Z,89.97
2017-08-30T05:34:10.486Z,89.97
2017-08-30T05:34:11.080Z,89.87
2017-08-30T05:35:05.594Z,89.78
2017-08-30T05:35:06.164Z,89.78
2017-08-30T05:35:06.755Z,89.49
2017-08-30T05:35:07.365Z,89.72
2017-08-30T05:35:07.959Z,89.49
2017-08-30T05:35:08.557Z,89.39
2017-08-30T05:35:09.153Z,89.78
2017-08-30T05:35:09.757Z,89.24
2017-08-30T05:36:04.236Z,89.39
2017-08-30T05:36:04.837Z,88.95
2017-08-30T05:36:05.438Z,89.43
2017-08-30T05:36:06.038Z,89.49
2017-08-30T05:36:06.633Z,89.43
2017-08-30T05:36:07.233Z,89.15
2017-08-30T05:36:07.836Z,89.49
2017-08-30T05:36:08.434Z,89.15
2017-08-30T05:37:02.913Z,89.34
2017-08-30T05:37:03.512Z,89.43
2017-08-30T05:37:04.110Z,89.43
2017-08-30T05:37:04.714Z,89.43
2017-08-30T05:37:05.313Z,89.43
2017-08-30T05:37:05.913Z,89.53
2017-08-30T05:37:06.510Z,89.24
2017-08-30T05:37:07.105Z,89.24
2017-08-30T05:38:01.589Z,88.57
2017-08-30T05:38:02.190Z,88.85
2017-08-30T05:38:02.791Z,88.76
2017-08-30T05:38:03.390Z,88.76
2017-08-30T05:38:03.989Z,88.57
2017-08-30T05:38:04.584Z,88.76
2017-08-30T05:38:05.189Z,88.76
2017-08-30T05:38:05.793Z,88.76
2017-08-30T05:38:59.240Z,88.38
2017-08-30T05:38:59.842Z,88.57
2017-08-30T05:39:00.438Z,88.47
2017-08-30T05:39:01.033Z,88.18
2017-08-30T05:39:01.635Z,88.47
2017-08-30T05:39:02.242Z,88.47
2017-08-30T05:39:02.837Z,88.67
2017-08-30T05:39:03.434Z,88.28
2017-08-30T05:39:57.919Z,88.57
2017-08-30T05:39:58.507Z,88.57
2017-08-30T05:39:59.111Z,88.57
2017-08-30T05:39:59.709Z,88.47
2017-08-30T05:40:00.316Z,88.47
2017-08-30T05:40:00.911Z,88.67
2017-08-30T05:40:01.509Z,88.47
2017-08-30T05:40:02.109Z,88.67
2017-08-30T05:40:55.600Z,87.90
2017-08-30T05:40:56.165Z,87.90
2017-08-30T05:40:56.769Z,87.90
2017-08-30T05:40:57.361Z,88.28
2017-08-30T05:40:57.964Z,87.99
2017-08-30T05:40:58.559Z,87.90
2017-08-30T05:40:59.168Z,87.99
2017-08-30T05:40:59.765Z,87.99
2017-08-30T05:41:53.224Z,87.90
2017-08-30T05:41:53.822Z,88.09
2017-08-30T05:41:54.420Z,88.09
2017-08-30T05:41:55.021Z,88.09
2017-08-30T05:41:55.613Z,87.90
2017-08-30T05:41:56.219Z,88.09
2017-08-30T05:41:56.813Z,87.99
2017-08-30T05:41:57.415Z,87.99
2017-08-30T05:42:51.380Z,87.65
2017-08-30T05:42:51.983Z,87.70
2017-08-30T05:42:52.578Z,87.65
2017-08-30T05:42:53.179Z,87.70
2017-08-30T05:42:53.779Z,87.70
2017-08-30T05:42:54.379Z,87.74
2017-08-30T05:42:54.978Z,87.84
2017-08-30T05:43:48.521Z,87.65
2017-08-30T05:43:49.117Z,87.55
2017-08-30T05:43:49.720Z,87.55
2017-08-30T05:43:50.321Z,87.55
2017-08-30T05:43:50.918Z,87.55
2017-08-30T05:43:51.516Z,87.55
2017-08-30T05:43:52.123Z,88.04
2017-08-30T05:43:52.721Z,87.65
2017-08-30T05:44:46.175Z,87.46
2017-08-30T05:44:46.771Z,87.65
2017-08-30T05:44:47.372Z,87.65
2017-08-30T05:44:47.972Z,87.55
2017-08-30T05:44:48.571Z,87.36
2017-08-30T05:44:49.172Z,87.55
2017-08-30T05:44:49.772Z,87.55
2017-08-30T05:44:50.371Z,87.46
2017-08-30T05:45:43.827Z,87.46
2017-08-30T05:45:44.427Z,87.26
2017-08-30T05:45:45.022Z,86.98
2017-08-30T05:45:45.622Z,87.17
2017-08-30T05:45:46.223Z,87.46
2017-08-30T05:45:46.827Z,87.07
2017-08-30T05:45:47.426Z,87.26
2017-08-30T05:45:48.028Z,87.17
2017-08-30T05:46:41.503Z,86.98
2017-08-30T05:46:42.075Z,86.69
2017-08-30T05:46:42.674Z,86.98
2017-08-30T05:46:43.274Z,86.78
2017-08-30T05:46:43.879Z,86.98
2017-08-30T05:46:44.474Z,86.98
2017-08-30T05:46:45.070Z,86.98
2017-08-30T05:46:45.672Z,86.88
2017-08-30T05:47:39.128Z,86.88
2017-08-30T05:47:39.736Z,86.49
2017-08-30T05:47:40.326Z,86.69
2017-08-30T05:47:40.922Z,86.49
2017-08-30T05:47:41.522Z,86.78
2017-08-30T05:47:42.128Z,86.40
2017-08-30T05:47:42.726Z,86.88
2017-08-30T05:47:43.325Z,86.44
2017-08-30T06:04:21.858Z,81.55
2017-08-30T06:04:22.430Z,81.45
2017-08-30T06:04:23.032Z,81.35
2017-08-30T06:04:23.634Z,81.35
2017-08-30T06:04:24.240Z,81.26
2017-08-30T06:04:24.827Z,81.35
2017-08-30T06:04:25.429Z,81.35
2017-08-30T06:04:26.029Z,81.45
2017-08-30T06:05:20.513Z,81.16
2017-08-30T06:05:21.105Z,81.26
2017-08-30T06:05:21.701Z,81.07
2017-08-30T06:05:22.300Z,81.65
2017-08-30T06:05:22.905Z,81.07
2017-08-30T06:05:23.502Z,80.68
2017-08-30T06:05:24.101Z,80.68
2017-08-30T06:05:24.703Z,80.87
2017-08-30T06:06:18.190Z,80.87
2017-08-30T06:06:18.758Z,80.82
2017-08-30T06:06:19.358Z,80.91
2017-08-30T06:06:19.954Z,80.91
2017-08-30T06:06:20.562Z,80.87
2017-08-30T06:06:21.160Z,81.01
2017-08-30T06:06:21.762Z,80.82
2017-08-30T06:06:22.360Z,80.91
2017-08-30T06:07:15.810Z,80.43
2017-08-30T06:07:16.411Z,80.33
2017-08-30T06:07:17.018Z,80.43
2017-08-30T06:07:17.614Z,80.14
2017-08-30T06:07:18.208Z,80.43
2017-08-30T06:07:18.810Z,80.05
2017-08-30T06:07:19.409Z,80.33
2017-08-30T06:07:20.009Z,80.24
2017-08-30T06:08:14.493Z,79.75
2017-08-30T06:08:15.084Z,79.75
2017-08-30T06:08:15.686Z,79.75
2017-08-30T06:08:16.289Z,79.85
2017-08-30T06:08:16.885Z,79.47
2017-08-30T06:08:17.482Z,79.75
2017-08-30T06:08:18.083Z,79.85
2017-08-30T06:08:18.686Z,79.95
2017-08-30T06:09:13.164Z,80.05
2017-08-30T06:09:13.765Z,79.85
2017-08-30T06:09:14.367Z,80.14
2017-08-30T06:09:14.965Z,80.05
2017-08-30T06:09:15.564Z,80.05
2017-08-30T06:09:16.162Z,79.95
2017-08-30T06:09:16.757Z,79.95
2017-08-30T06:09:17.360Z,80.05
2017-08-30T06:10:11.845Z,79.17
2017-08-30T06:10:12.438Z,79.37
2017-08-30T06:10:13.038Z,79.17
2017-08-30T06:10:13.638Z,79.17
2017-08-30T06:10:14.238Z,79.17
2017-08-30T06:10:14.839Z,79.37
2017-08-30T06:10:15.437Z,79.27
2017-08-30T06:10:16.042Z,79.47
2017-08-30T06:11:10.518Z,79.47
2017-08-30T06:11:11.114Z,79.47
2017-08-30T06:11:11.711Z,79.47
2017-08-30T06:11:12.310Z,78.89
2017-08-30T06:11:12.914Z,78.99
2017-08-30T06:11:13.518Z,79.37
2017-08-30T06:11:14.117Z,79.47
2017-08-30T06:11:14.713Z,79.47
2017-08-30T06:12:09.224Z,79.33
2017-08-30T06:12:09.790Z,79.04
2017-08-30T06:12:10.386Z,79.33
2017-08-30T06:12:10.988Z,79.33
2017-08-30T06:12:11.590Z,79.33
2017-08-30T06:12:12.191Z,79.33
2017-08-30T06:12:12.788Z,79.43
2017-08-30T06:12:13.389Z,79.04
2017-08-30T06:13:07.870Z,79.62
2017-08-30T06:13:08.467Z,79.72
2017-08-30T06:13:09.066Z,79.72
2017-08-30T06:13:09.665Z,79.81
2017-08-30T06:13:10.267Z,79.72
2017-08-30T06:13:10.870Z,79.72
2017-08-30T06:13:11.468Z,79.72
2017-08-30T06:13:12.069Z,79.72
2017-08-30T06:14:06.545Z,80.10
2017-08-30T06:14:07.148Z,80.20
2017-08-30T06:14:07.741Z,80.00
2017-08-30T06:14:08.347Z,80.20
2017-08-30T06:14:08.946Z,80.20
2017-08-30T06:14:09.556Z,80.00
2017-08-30T06:14:10.142Z,80.20
2017-08-30T06:14:10.742Z,80.10
2017-08-30T06:15:05.227Z,80.00
2017-08-30T06:15:05.818Z,80.39
2017-08-30T06:15:06.419Z,80.10
2017-08-30T06:15:07.018Z,80.39
2017-08-30T06:15:07.618Z,80.20
2017-08-30T06:15:08.217Z,79.91
2017-08-30T06:15:08.825Z,80.39
2017-08-30T06:15:09.418Z,80.39
2017-08-30T06:16:02.874Z,80.49
2017-08-30T06:16:03.472Z,80.49
2017-08-30T06:16:04.075Z,80.30
2017-08-30T06:16:04.670Z,80.39
2017-08-30T06:16:05.269Z,80.49
2017-08-30T06:16:05.871Z,80.39
2017-08-30T06:16:06.473Z,80.49
2017-08-30T06:16:07.066Z,80.58
2017-08-30T06:17:00.531Z,80.10
2017-08-30T06:17:01.124Z,80.10
2017-08-30T06:17:01.726Z,79.91
2017-08-30T06:17:02.324Z,80.49
2017-08-30T06:17:02.920Z,80.00
2017-08-30T06:17:03.519Z,80.10
2017-08-30T06:17:04.120Z,80.10
2017-08-30T06:17:04.722Z,80.10
2017-08-30T06:17:58.208Z,79.91
2017-08-30T06:17:58.779Z,79.91
2017-08-30T06:17:59.374Z,80.00
2017-08-30T06:17:59.971Z,80.10
2017-08-30T06:18:00.573Z,80.00
2017-08-30T06:18:01.170Z,80.00
2017-08-30T06:18:01.775Z,80.10
2017-08-30T06:18:02.373Z,80.00
2017-08-30T06:18:56.859Z,80.00
2017-08-30T06:18:57.453Z,80.39
2017-08-30T06:18:58.045Z,80.68
2017-08-30T06:18:58.650Z,80.39
2017-08-30T06:18:59.249Z,80.00
2017-08-30T06:18:59.845Z,80.00
2017-08-30T06:19:00.448Z,80.39
2017-08-30T06:19:01.052Z,80.39
2017-08-30T06:19:55.530Z,80.10
2017-08-30T06:19:56.126Z,80.20
2017-08-30T06:19:56.730Z,80.00
2017-08-30T06:19:57.325Z,80.00
2017-08-30T06:19:57.925Z,80.10
2017-08-30T06:19:58.525Z,80.20
2017-08-30T06:19:59.130Z,80.00
2017-08-30T06:19:59.722Z,80.20
2017-08-30T06:20:54.210Z,80.20
2017-08-30T06:20:54.806Z,80.33
2017-08-30T06:20:55.401Z,80.24
2017-08-30T06:20:56.001Z,80.24
2017-08-30T06:20:56.605Z,80.43
2017-08-30T06:20:57.204Z,80.43
2017-08-30T06:20:57.801Z,80.24
2017-08-30T06:20:58.403Z,80.24
2017-08-30T06:21:52.879Z,80.62
2017-08-30T06:21:53.488Z,80.68
2017-08-30T06:21:54.077Z,80.72
2017-08-30T06:21:54.693Z,80.53
2017-08-30T06:21:55.280Z,80.43
2017-08-30T06:21:55.873Z,80.62
2017-08-30T06:21:56.477Z,80.68
2017-08-30T06:21:57.074Z,80.49
2017-08-30T06:22:51.561Z,80.20
2017-08-30T06:22:52.150Z,80.20
2017-08-30T06:22:52.757Z,80.30
2017-08-30T06:22:53.356Z,80.78
2017-08-30T06:22:53.952Z,80.10
2017-08-30T06:22:54.552Z,80.20
2017-08-30T06:22:55.147Z,80.20
2017-08-30T06:22:55.754Z,80.20
2017-08-30T06:23:50.250Z,80.39
2017-08-30T06:23:50.829Z,80.00
2017-08-30T06:23:51.425Z,80.20
2017-08-30T06:23:52.030Z,80.39
2017-08-30T06:23:52.630Z,80.39
2017-08-30T06:23:53.226Z,80.39
2017-08-30T06:23:53.824Z,80.39
2017-08-30T06:23:54.426Z,80.00
2017-08-30T06:24:48.903Z,80.20
2017-08-30T06:24:49.505Z,80.39
2017-08-30T06:24:50.104Z,79.91
2017-08-30T06:24:50.701Z,80.30
2017-08-30T06:24:51.304Z,80.30
2017-08-30T06:24:51.900Z,80.39
2017-08-30T06:24:52.506Z,80.39
2017-08-30T06:24:53.104Z,80.39
2017-08-30T06:25:47.582Z,81.11
2017-08-30T06:25:48.180Z,81.30
2017-08-30T06:25:48.781Z,81.26
2017-08-30T06:25:49.381Z,81.30
2017-08-30T06:25:49.979Z,81.20
2017-08-30T06:25:50.590Z,81.30
2017-08-30T06:25:51.184Z,81.11
2017-08-30T06:25:51.778Z,81.30
2017-08-30T06:26:46.271Z,80.53
2017-08-30T06:26:46.856Z,80.72
2017-08-30T06:26:47.455Z,80.62
2017-08-30T06:26:48.061Z,80.62
2017-08-30T06:26:48.665Z,80.72
2017-08-30T06:26:49.256Z,80.72
2017-08-30T06:26:49.857Z,80.62
2017-08-30T06:26:50.459Z,80.72
2017-08-30T06:27:43.917Z,80.33
2017-08-30T06:27:44.526Z,80.43
2017-08-30T06:27:45.111Z,80.53
2017-08-30T06:27:45.715Z,80.53
2017-08-30T06:27:46.306Z,80.33
2017-08-30T06:27:46.907Z,80.53
2017-08-30T06:27:47.504Z,80.33
2017-08-30T06:27:48.110Z,80.62
2017-08-30T06:28:41.696Z,80.33
2017-08-30T06:28:42.262Z,80.62
2017-08-30T06:28:42.860Z,80.24
2017-08-30T06:28:43.462Z,80.24
2017-08-30T06:28:44.063Z,80.24
2017-08-30T06:28:44.664Z,80.24
2017-08-30T06:28:45.261Z,80.53
2017-08-30T06:28:45.866Z,80.24
2017-08-30T06:29:40.345Z,79.47
2017-08-30T06:29:40.942Z,79.56
2017-08-30T06:29:41.541Z,79.95
2017-08-30T06:29:42.137Z,79.56
2017-08-30T06:29:42.735Z,79.95
2017-08-30T06:29:43.336Z,79.56
2017-08-30T06:29:43.934Z,79.56
2017-08-30T06:29:44.534Z,79.95
2017-08-30T06:30:37.990Z,79.75
2017-08-30T06:30:38.595Z,79.75
2017-08-30T06:30:39.191Z,79.85
2017-08-30T06:30:39.791Z,79.85
2017-08-30T06:30:40.390Z,79.66
2017-08-30T06:30:40.993Z,79.66
2017-08-30T06:30:41.591Z,79.85
2017-08-30T06:30:42.190Z,79.85
2017-08-30T06:31:36.673Z,79.56
2017-08-30T06:31:37.267Z,79.50
2017-08-30T06:31:37.866Z,79.02
2017-08-30T06:31:38.471Z,79.47
2017-08-30T06:31:39.065Z,79.37
2017-08-30T06:31:39.664Z,79.41
2017-08-30T06:31:40.266Z,79.37
2017-08-30T06:31:40.863Z,78.89
2017-08-30T06:32:34.325Z,79.31
2017-08-30T06:32:34.914Z,79.12
2017-08-30T06:32:35.520Z,79.31
2017-08-30T06:32:36.113Z,79.41
2017-08-30T06:32:36.720Z,79.17
2017-08-30T06:32:37.317Z,79.22
2017-08-30T06:32:37.913Z,79.41
2017-08-30T06:32:38.517Z,79.22
2017-08-30T06:33:33.001Z,79.12
2017-08-30T06:33:33.588Z,79.12
2017-08-30T06:33:34.195Z,79.41
2017-08-30T06:33:34.791Z,79.31
2017-08-30T06:33:35.388Z,79.12
2017-08-30T06:33:35.989Z,79.41
2017-08-30T06:33:36.592Z,79.41
2017-08-30T06:33:37.191Z,79.22
2017-08-30T06:34:31.697Z,79.12
2017-08-30T06:34:32.268Z,79.12
2017-08-30T06:34:32.868Z,79.22
2017-08-30T06:34:33.468Z,79.22
2017-08-30T06:34:34.070Z,79.12
2017-08-30T06:34:34.668Z,79.41
2017-08-30T06:34:35.268Z,79.70
2017-08-30T06:34:35.863Z,79.12
2017-08-30T06:35:29.836Z,79.22
2017-08-30T06:35:30.431Z,79.22
2017-08-30T06:35:31.031Z,79.31
2017-08-30T06:35:31.633Z,79.22
2017-08-30T06:35:32.232Z,79.31
2017-08-30T06:35:32.833Z,79.31
2017-08-30T06:35:33.435Z,79.22
2017-08-30T06:36:26.972Z,79.31
2017-08-30T06:36:27.570Z,79.41
2017-08-30T06:36:28.173Z,79.22
2017-08-30T06:36:28.772Z,79.31
2017-08-30T06:36:29.373Z,79.22
2017-08-30T06:36:29.970Z,79.22
2017-08-30T06:36:30.577Z,79.31
2017-08-30T06:36:31.172Z,79.31
2017-08-30T06:37:25.651Z,78.73
2017-08-30T06:37:26.243Z,79.50
2017-08-30T06:37:26.847Z,78.64
2017-08-30T06:37:27.446Z,78.73
2017-08-30T06:37:28.046Z,78.54
2017-08-30T06:37:28.651Z,78.73
2017-08-30T06:37:29.244Z,78.54
2017-08-30T06:37:29.850Z,79.50
2017-08-30T06:38:24.326Z,79.22
2017-08-30T06:38:24.927Z,79.41
2017-08-30T06:38:25.522Z,79.41
2017-08-30T06:38:26.125Z,79.41
2017-08-30T06:38:26.727Z,79.60
2017-08-30T06:38:27.318Z,79.31
2017-08-30T06:38:27.921Z,78.34
2017-08-30T06:38:28.527Z,79.31
2017-08-30T06:39:21.989Z,78.54
2017-08-30T06:39:22.580Z,78.44
2017-08-30T06:39:23.176Z,78.54
2017-08-30T06:39:23.776Z,78.54
2017-08-30T06:39:24.377Z,78.54
2017-08-30T06:39:24.974Z,78.54
2017-08-30T06:39:25.576Z,78.54
2017-08-30T06:39:26.176Z,78.64
2017-08-30T06:40:19.664Z,78.54
2017-08-30T06:40:20.223Z,78.44
2017-08-30T06:40:20.826Z,79.31
2017-08-30T06:40:21.428Z,78.54
2017-08-30T06:40:22.023Z,79.41
2017-08-30T06:40:22.630Z,78.54
2017-08-30T06:40:23.223Z,79.41
2017-08-30T06:40:23.825Z,79.22
2017-08-30T06:41:18.309Z,79.22
2017-08-30T06:41:18.902Z,79.41
2017-08-30T06:41:19.504Z,79.22
2017-08-30T06:41:20.103Z,78.15
2017-08-30T06:41:20.698Z,79.22
2017-08-30T06:41:21.302Z,78.15
2017-08-30T06:41:21.899Z,79.31
2017-08-30T06:41:22.502Z,79.31
2017-08-30T06:42:15.953Z,79.12
2017-08-30T06:42:16.550Z,79.22
2017-08-30T06:42:17.153Z,79.22
2017-08-30T06:42:17.757Z,79.22
2017-08-30T06:42:18.354Z,79.31
2017-08-30T06:42:18.953Z,79.12
2017-08-30T06:42:19.559Z,79.12
2017-08-30T06:42:20.156Z,79.22
2017-08-30T06:43:14.632Z,77.96
2017-08-30T06:43:15.233Z,78.15
2017-08-30T06:43:15.829Z,78.29
2017-08-30T06:43:16.433Z,78.34
2017-08-30T06:43:17.031Z,78.19
2017-08-30T06:43:17.626Z,78.25
2017-08-30T06:43:18.233Z,78.15
2017-08-30T06:43:18.833Z,78.29
2017-08-30T06:44:12.281Z,78.58
2017-08-30T06:44:12.882Z,78.67
2017-08-30T06:44:13.480Z,78.44
2017-08-30T06:44:14.082Z,78.48
2017-08-30T06:44:14.687Z,78.48
2017-08-30T06:44:15.280Z,78.67
2017-08-30T06:44:15.878Z,78.48
2017-08-30T06:44:16.479Z,78.48
2017-08-30T06:45:09.936Z,78.29
2017-08-30T06:45:10.530Z,78.09
2017-08-30T06:45:11.137Z,78.38
2017-08-30T06:45:11.733Z,78.00
2017-08-30T06:45:12.334Z,78.09
2017-08-30T06:45:12.932Z,78.29
2017-08-30T06:45:13.533Z,78.29
2017-08-30T06:45:14.135Z,78.00
2017-08-30T06:46:07.617Z,77.71
2017-08-30T06:46:08.181Z,77.71
2017-08-30T06:46:08.795Z,77.90
2017-08-30T06:46:09.389Z,77.61
2017-08-30T06:46:09.988Z,77.90
2017-08-30T06:46:10.586Z,77.80
2017-08-30T06:46:11.188Z,77.80
2017-08-30T06:46:11.785Z,77.61
2017-08-30T06:47:05.240Z,76.78
2017-08-30T06:47:05.840Z,77.13
2017-08-30T06:47:06.440Z,76.78
2017-08-30T06:47:07.036Z,77.22
2017-08-30T06:47:07.638Z,76.93
2017-08-30T06:47:08.233Z,76.93
2017-08-30T06:47:08.836Z,76.93
2017-08-30T06:47:09.440Z,76.87
2017-08-30T06:48:02.896Z,76.20
2017-08-30T06:48:03.485Z,75.81
2017-08-30T06:48:04.088Z,76.49
2017-08-30T06:48:04.687Z,76.20
2017-08-30T06:48:05.284Z,75.81
2017-08-30T06:48:05.888Z,76.20
2017-08-30T06:48:06.487Z,76.20
2017-08-30T06:48:07.088Z,76.06
2017-08-30T07:05:27.503Z,72.21
2017-08-30T07:05:28.081Z,72.30
2017-08-30T07:05:28.675Z,72.24
2017-08-30T07:05:29.278Z,72.21
2017-08-30T07:05:29.876Z,72.50
2017-08-30T07:05:30.476Z,72.50
2017-08-30T07:05:31.074Z,72.60
2017-08-30T07:05:31.698Z,72.69
2017-08-30T07:06:25.140Z,73.75
2017-08-30T07:06:25.732Z,73.75
2017-08-30T07:06:26.323Z,73.91
2017-08-30T07:06:26.926Z,73.95
2017-08-30T07:06:27.529Z,74.05